Thursday, August 16, 2018, 9:58 AM EDT
Back to Local

KBHB, Bar Harbor, Hancock County-bar Harbor Airport

Location: Ellsworth, ME, United States Lat: 44.45
Local Time: 9:58 AM EDT (13:58 GMT) Lon: -68.367
Time Zone: US/Eastern Elev: 82 ft

Show me the last for .
Show Decoded

2018-08-16 08:56 METAR KBHB 161256Z AUTO 00000KT 10SM CLR 23/21 A2993 RMK AO2 SLP140 T02280206 $
                 =
2018-08-16 07:56 METAR KBHB 161156Z AUTO 00000KT 10SM SCT100 BKN120 21/19 A2993 RMK AO2 SLP139
                 60018 70060 T02060194 10206 20167 53015 $ =
2018-08-16 06:56 METAR KBHB 161056Z AUTO 00000KT 10SM CLR 18/18 A2992 RMK AO2 SLP133 T01830183 $
                 =
2018-08-16 06:26 METAR KBHB 161026Z AUTO 18003KT 9SM CLR 18/18 A2991 RMK AO2 $ =
2018-08-16 06:13 METAR KBHB 161013Z AUTO 00000KT 1 1/2SM BR CLR 17/17 A2991 RMK AO2 VIS 1/2V5 $ =
2018-08-16 05:56 METAR KBHB 160956Z AUTO 00000KT 3/4SM BR FEW100 17/17 A2990 RMK AO2 VIS 1/2V3
                 SLP129 T01720167 RVRNO $ =
2018-08-16 05:54 METAR KBHB 160954Z AUTO 00000KT 3/4SM BR FEW100 17/17 A2990 RMK AO2 VIS 1/2V5
                 RVRNO $ =
2018-08-16 05:48 METAR KBHB 160948Z AUTO 00000KT 1 3/4SM BR FEW100 17/17 A2990 RMK AO2 $ =
2018-08-16 04:56 METAR KBHB 160856Z AUTO 24004KT 10SM CLR 18/18 A2989 RMK AO2 SLP124 60018
                 T01780178 53005 $ =
2018-08-16 03:56 METAR KBHB 160756Z AUTO 00000KT 10SM FEW100 18/17 A2988 RMK AO2 SLP121 P0001
                 T01780172 $ =
2018-08-16 02:56 METAR KBHB 160656Z AUTO 26004KT 10SM FEW070 SCT120 19/18 A2987 RMK AO2 LTG DSNT
                 NE-S TSE55RAE45 SLP118 P0017 T01890178 $ =
2018-08-16 01:59 METAR KBHB 160559Z AUTO 28007KT 8SM TSRA SCT015 BKN045 OVC070 21/18 A2989 RMK
                 AO2 LTG DSNT SW-N P0001 $ =
2018-08-16 01:56 METAR KBHB 160556Z AUTO 00000KT 2SM -TSRA BR SCT013 BKN028 OVC070 21/18 A2987
                 RMK AO2 LTG DSNT SW-N TSB12RAB40 SLP119 P0042 60042 T02060183 10211 20183 56003
                 $ =
2018-08-16 01:46 METAR KBHB 160546Z AUTO 34012G21KT 310V010 1 3/4SM +TSRA BR SCT015 BKN028 OVC055
                 20/19 A2988 RMK AO2 LTG DSNT W-N TSB12RAB40 P0023 $ =
2018-08-16 01:44 METAR KBHB 160544Z AUTO 32006G14KT 2 1/2SM +TSRA BR SCT015 BKN045 OVC070 20/19
                 A2988 RMK AO2 LTG DSNT W AND NW TSB12RAB40 P0010 $ =
2018-08-16 01:23 METAR KBHB 160523Z AUTO 00000KT 10SM VCTS BKN065 BKN075 BKN090 20/18 A2986 RMK
                 AO2 LTG DSNT W AND NW TSB12 $ =
2018-08-16 00:56 METAR KBHB 160456Z AUTO 28006KT 10SM SCT015 SCT095 20/18 A2988 RMK AO2 LTG DSNT
                 NW SLP120 T02000183 $ =
2018-08-15 23:56 METAR KBHB 160356Z AUTO 18004KT 10SM OVC015 20/18 A2988 RMK AO2 LTG DSNT NE
                 SLP120 T02000178 $ =
2018-08-15 23:19 METAR KBHB 160319Z AUTO VRB05KT 10SM OVC013 20/18 A2989 RMK AO2 LTG DSNT N AND E
                 $ =
2018-08-15 22:56 METAR KBHB 160256Z AUTO 00000KT 10SM OVC009 19/18 A2988 RMK AO2 LTG DSNT NE AND
                 E SLP123 T01940183 51017 $ =
2018-08-15 22:09 METAR KBHB 160209Z AUTO 00000KT 9SM BKN007 19/18 A2988 RMK AO2 LTG DSNT NE CIG
                 005V008 $ =
2018-08-15 21:56 METAR KBHB 160156Z AUTO 00000KT 8SM SCT007 BKN075 18/18 A2988 RMK AO2 LTG DSNT
                 NE SLP121 T01830183 $ =
2018-08-15 20:56 METAR KBHB 160056Z AUTO 22004KT 7SM SCT003 BKN085 18/18 A2986 RMK AO2 SLP115
                 T01830178 $ =
2018-08-15 20:42 METAR KBHB 160042Z AUTO 21004KT 3SM BR OVC003 18/18 A2986 RMK AO2 LTG DSNT NE $
                 =
2018-08-15 20:39 METAR KBHB 160039Z AUTO 22004KT 1 1/4SM BR OVC003 18/18 A2986 RMK AO2 LTG DSNT
                 NE $ =
2018-08-15 20:24 METAR KBHB 160024Z AUTO 21003KT 3/4SM BR OVC003 18/18 A2985 RMK AO2 RVRNO $ =
2018-08-15 20:20 METAR KBHB 160020Z AUTO 19004KT 1 3/4SM BR OVC003 18/18 A2985 RMK AO2 VIS 3/4V5
                 $ =
2018-08-15 19:56 METAR KBHB 152356Z AUTO 18006KT 9SM OVC003 19/18 A2983 RMK AO2 SLP105 T01890183
                 10261 20189 402610189 53011 $ =
2018-08-15 18:56 METAR KBHB 152256Z AUTO 17007KT 10SM OVC003 19/19 A2981 RMK AO2 SLP097 T01940189
                 $ =
2018-08-15 18:49 METAR KBHB 152249Z AUTO 19006KT 9SM BKN003 19/19 A2981 RMK AO2 $ =
2018-08-15 18:35 METAR KBHB 152235Z AUTO 21010KT 9SM SCT003 19/19 A2981 RMK AO2 $ =
2018-08-15 17:56 METAR KBHB 152156Z AUTO 21011KT 10SM CLR 21/19 A2980 RMK AO2 SLP094 T02060189 $
                 =
2018-08-15 16:56 METAR KBHB 152056Z AUTO 21010KT 10SM CLR 23/20 A2980 RMK AO2 LTG DSNT N AND NW
                 SLP096 T02330200 55000 $ =
2018-08-15 15:56 METAR KBHB 151956Z AUTO 21011KT 10SM CLR 26/21 A2980 RMK AO2 SLP094 T02560206 $
                 =
2018-08-15 14:56 METAR KBHB 151856Z AUTO 20008KT 10SM CLR 26/21 A2980 RMK AO2 SLP094 T02610206 $
                 =
2018-08-15 14:10 METAR KBHB 151810Z AUTO 18007KT 10SM FEW020 25/21 A2980 RMK AO2 $ =
2018-08-15 13:56 METAR KBHB 151756Z AUTO 18008KT 10SM BKN020 26/21 A2981 RMK AO2 SLP096 T02560206
                 10256 20200 58009 $ =
2018-08-15 12:56 METAR KBHB 151656Z AUTO 29003KT 10SM FEW009 OVC016 23/21 A2984 RMK AO2 SLP107
                 T02280206 $ =
2018-08-15 11:56 METAR KBHB 151556Z AUTO 21008KT 10SM OVC011 23/20 A2983 RMK AO2 CIG 008V013
                 SLP105 T02280200 $ =
2018-08-15 11:18 METAR KBHB 151518Z AUTO 23006KT 10SM BKN008 OVC014 22/20 A2984 RMK AO2 CIG
                 007V010 $ =
2018-08-15 10:56 METAR KBHB 151456Z AUTO 21008KT 10SM OVC014 22/20 A2983 RMK AO2 SLP105 T02170200
                 56004 $ =
2018-08-15 10:15 METAR KBHB 151415Z AUTO 20009KT 10SM SCT007 OVC022 22/20 A2983 RMK AO2 $ =

Support USWX by starting your Amazon purchase here.